sensor_id;sensor_type;location;lat;lon;timestamp;P1;durP1;ratioP1;P2;durP2;ratioP2
17390;SDS011;8813;54.444;18.446;2023-02-28T00:01:06;1.20;;;1.20;;
17390;SDS011;8813;54.444;18.446;2023-02-28T00:03:33;1.43;;;1.43;;
17390;SDS011;8813;54.444;18.446;2023-02-28T00:06:01;2.07;;;1.87;;
17390;SDS011;8813;54.444;18.446;2023-02-28T00:08:28;1.40;;;1.40;;
17390;SDS011;8813;54.444;18.446;2023-02-28T00:10:56;2.27;;;2.27;;
17390;SDS011;8813;54.444;18.446;2023-02-28T00:13:22;2.43;;;2.33;;
17390;SDS011;8813;54.444;18.446;2023-02-28T00:15:58;1.50;;;1.50;;
17390;SDS011;8813;54.444;18.446;2023-02-28T00:18:27;1.70;;;1.70;;
17390;SDS011;8813;54.444;18.446;2023-02-28T00:20:53;1.50;;;1.50;;
17390;SDS011;8813;54.444;18.446;2023-02-28T00:23:20;1.83;;;1.83;;
17390;SDS011;8813;54.444;18.446;2023-02-28T00:25:47;1.70;;;1.70;;
17390;SDS011;8813;54.444;18.446;2023-02-28T00:28:14;1.60;;;1.60;;
17390;SDS011;8813;54.444;18.446;2023-02-28T00:30:41;3.87;;;3.67;;
17390;SDS011;8813;54.444;18.446;2023-02-28T00:33:08;1.30;;;1.30;;
17390;SDS011;8813;54.444;18.446;2023-02-28T00:35:36;1.97;;;1.97;;
17390;SDS011;8813;54.444;18.446;2023-02-28T00:38:03;1.50;;;1.50;;
17390;SDS011;8813;54.444;18.446;2023-02-28T00:40:30;4.73;;;4.50;;
17390;SDS011;8813;54.444;18.446;2023-02-28T00:42:57;1.50;;;1.50;;
17390;SDS011;8813;54.444;18.446;2023-02-28T00:45:24;1.43;;;1.43;;
17390;SDS011;8813;54.444;18.446;2023-02-28T00:47:51;2.87;;;2.87;;
17390;SDS011;8813;54.444;18.446;2023-02-28T00:50:18;3.83;;;3.73;;
17390;SDS011;8813;54.444;18.446;2023-02-28T00:52:47;1.40;;;1.40;;
17390;SDS011;8813;54.444;18.446;2023-02-28T00:55:14;2.00;;;2.00;;
17390;SDS011;8813;54.444;18.446;2023-02-28T00:57:41;15.77;;;3.07;;
17390;SDS011;8813;54.444;18.446;2023-02-28T01:00:09;1.70;;;1.70;;
17390;SDS011;8813;54.444;18.446;2023-02-28T01:02:36;7.67;;;7.20;;
17390;SDS011;8813;54.444;18.446;2023-02-28T01:05:03;4.63;;;4.43;;
17390;SDS011;8813;54.444;18.446;2023-02-28T01:07:31;9.37;;;8.90;;
17390;SDS011;8813;54.444;18.446;2023-02-28T01:09:59;10.70;;;9.93;;
17390;SDS011;8813;54.444;18.446;2023-02-28T01:12:26;2.60;;;2.60;;
17390;SDS011;8813;54.444;18.446;2023-02-28T01:14:53;9.63;;;9.13;;
17390;SDS011;8813;54.444;18.446;2023-02-28T01:17:20;10.83;;;8.93;;
17390;SDS011;8813;54.444;18.446;2023-02-28T01:19:47;3.40;;;3.33;;
17390;SDS011;8813;54.444;18.446;2023-02-28T01:22:14;7.40;;;6.73;;
17390;SDS011;8813;54.444;18.446;2023-02-28T01:24:41;7.73;;;7.23;;
17390;SDS011;8813;54.444;18.446;2023-02-28T01:27:10;7.20;;;6.70;;
17390;SDS011;8813;54.444;18.446;2023-02-28T01:29:36;14.97;;;3.97;;
17390;SDS011;8813;54.444;18.446;2023-02-28T01:32:03;3.07;;;2.87;;
17390;SDS011;8813;54.444;18.446;2023-02-28T01:34:30;18.43;;;6.53;;
17390;SDS011;8813;54.444;18.446;2023-02-28T01:36:57;1.60;;;1.60;;
17390;SDS011;8813;54.444;18.446;2023-02-28T01:39:24;1.93;;;1.93;;
17390;SDS011;8813;54.444;18.446;2023-02-28T01:41:51;1.13;;;1.13;;
17390;SDS011;8813;54.444;18.446;2023-02-28T01:47:39;10.43;;;9.63;;
17390;SDS011;8813;54.444;18.446;2023-02-28T01:50:09;5.50;;;5.10;;
17390;SDS011;8813;54.444;18.446;2023-02-28T01:52:40;11.83;;;5.00;;
17390;SDS011;8813;54.444;18.446;2023-02-28T01:55:08;8.10;;;5.23;;
17390;SDS011;8813;54.444;18.446;2023-02-28T01:57:40;3.67;;;3.57;;
17390;SDS011;8813;54.444;18.446;2023-02-28T02:00:09;3.90;;;3.73;;
17390;SDS011;8813;54.444;18.446;2023-02-28T02:02:41;8.03;;;4.20;;
17390;SDS011;8813;54.444;18.446;2023-02-28T02:05:10;1.40;;;1.40;;
17390;SDS011;8813;54.444;18.446;2023-02-28T02:07:41;2.53;;;2.33;;
17390;SDS011;8813;54.444;18.446;2023-02-28T02:10:13;4.67;;;2.33;;
17390;SDS011;8813;54.444;18.446;2023-02-28T02:12:46;1.20;;;1.20;;
17390;SDS011;8813;54.444;18.446;2023-02-28T02:15:19;1.10;;;1.10;;
17390;SDS011;8813;54.444;18.446;2023-02-28T02:17:51;1.30;;;1.30;;
17390;SDS011;8813;54.444;18.446;2023-02-28T02:20:42;1.20;;;1.20;;
17390;SDS011;8813;54.444;18.446;2023-02-28T02:26:51;1.40;;;1.40;;
17390;SDS011;8813;54.444;18.446;2023-02-28T02:29:27;1.87;;;1.87;;
17390;SDS011;8813;54.444;18.446;2023-02-28T02:32:13;2.43;;;2.43;;
17390;SDS011;8813;54.444;18.446;2023-02-28T02:35:02;2.30;;;2.30;;
17390;SDS011;8813;54.444;18.446;2023-02-28T02:37:34;1.97;;;1.97;;
17390;SDS011;8813;54.444;18.446;2023-02-28T02:40:07;1.70;;;1.70;;
17390;SDS011;8813;54.444;18.446;2023-02-28T02:42:39;2.00;;;2.00;;
17390;SDS011;8813;54.444;18.446;2023-02-28T02:45:09;4.60;;;4.40;;
17390;SDS011;8813;54.444;18.446;2023-02-28T02:47:38;5.03;;;3.50;;
17390;SDS011;8813;54.444;18.446;2023-02-28T02:50:11;1.30;;;1.30;;
17390;SDS011;8813;54.444;18.446;2023-02-28T02:52:40;1.60;;;1.60;;
17390;SDS011;8813;54.444;18.446;2023-02-28T02:55:10;1.40;;;1.40;;
17390;SDS011;8813;54.444;18.446;2023-02-28T02:57:40;2.03;;;2.03;;
17390;SDS011;8813;54.444;18.446;2023-02-28T03:00:11;1.30;;;1.30;;
17390;SDS011;8813;54.444;18.446;2023-02-28T03:02:38;1.30;;;1.30;;
17390;SDS011;8813;54.444;18.446;2023-02-28T03:05:13;4.63;;;2.63;;
17390;SDS011;8813;54.444;18.446;2023-02-28T03:07:43;12.30;;;5.03;;
17390;SDS011;8813;54.444;18.446;2023-02-28T03:10:30;2.63;;;2.50;;
17390;SDS011;8813;54.444;18.446;2023-02-28T03:13:03;1.40;;;1.40;;
17390;SDS011;8813;54.444;18.446;2023-02-28T03:15:45;1.30;;;1.30;;
17390;SDS011;8813;54.444;18.446;2023-02-28T03:18:22;1.40;;;1.40;;
17390;SDS011;8813;54.444;18.446;2023-02-28T03:20:57;1.33;;;1.33;;
17390;SDS011;8813;54.444;18.446;2023-02-28T03:23:29;1.30;;;1.30;;
17390;SDS011;8813;54.444;18.446;2023-02-28T03:26:00;2.00;;;2.00;;
17390;SDS011;8813;54.444;18.446;2023-02-28T03:28:31;35.07;;;9.80;;
17390;SDS011;8813;54.444;18.446;2023-02-28T03:31:01;2.17;;;2.17;;
17390;SDS011;8813;54.444;18.446;2023-02-28T03:33:32;8.70;;;8.03;;
17390;SDS011;8813;54.444;18.446;2023-02-28T03:36:04;8.53;;;7.80;;
17390;SDS011;8813;54.444;18.446;2023-02-28T03:38:35;1.80;;;1.80;;
17390;SDS011;8813;54.444;18.446;2023-02-28T03:41:05;1.60;;;1.60;;
17390;SDS011;8813;54.444;18.446;2023-02-28T03:43:34;1.50;;;1.50;;
17390;SDS011;8813;54.444;18.446;2023-02-28T03:46:04;2.00;;;2.00;;
17390;SDS011;8813;54.444;18.446;2023-02-28T03:48:36;1.60;;;1.60;;
17390;SDS011;8813;54.444;18.446;2023-02-28T03:51:07;2.70;;;2.70;;
17390;SDS011;8813;54.444;18.446;2023-02-28T03:53:39;10.10;;;2.30;;
17390;SDS011;8813;54.444;18.446;2023-02-28T03:56:11;1.57;;;1.57;;
17390;SDS011;8813;54.444;18.446;2023-02-28T03:58:41;1.47;;;1.47;;
17390;SDS011;8813;54.444;18.446;2023-02-28T04:01:11;3.87;;;3.70;;
17390;SDS011;8813;54.444;18.446;2023-02-28T04:03:42;1.50;;;1.50;;
17390;SDS011;8813;54.444;18.446;2023-02-28T04:06:14;1.40;;;1.40;;
17390;SDS011;8813;54.444;18.446;2023-02-28T04:08:42;1.70;;;1.70;;
17390;SDS011;8813;54.444;18.446;2023-02-28T04:11:12;55.87;;;24.67;;
17390;SDS011;8813;54.444;18.446;2023-02-28T04:13:45;59.07;;;26.77;;
17390;SDS011;8813;54.444;18.446;2023-02-28T04:16:12;54.23;;;23.73;;
17390;SDS011;8813;54.444;18.446;2023-02-28T04:18:39;41.83;;;19.20;;
17390;SDS011;8813;54.444;18.446;2023-02-28T04:21:06;32.87;;;16.90;;
17390;SDS011;8813;54.444;18.446;2023-02-28T04:23:34;38.43;;;18.47;;
17390;SDS011;8813;54.444;18.446;2023-02-28T04:26:02;38.40;;;18.27;;
17390;SDS011;8813;54.444;18.446;2023-02-28T04:28:30;48.50;;;21.33;;
17390;SDS011;8813;54.444;18.446;2023-02-28T04:30:57;43.73;;;21.00;;
17390;SDS011;8813;54.444;18.446;2023-02-28T04:33:25;43.47;;;20.93;;
17390;SDS011;8813;54.444;18.446;2023-02-28T04:35:57;43.67;;;22.40;;
17390;SDS011;8813;54.444;18.446;2023-02-28T04:38:25;38.27;;;18.47;;
17390;SDS011;8813;54.444;18.446;2023-02-28T04:40:53;35.43;;;18.37;;
17390;SDS011;8813;54.444;18.446;2023-02-28T04:43:20;34.50;;;17.30;;
17390;SDS011;8813;54.444;18.446;2023-02-28T04:45:47;34.90;;;17.77;;
17390;SDS011;8813;54.444;18.446;2023-02-28T04:48:14;31.47;;;17.03;;
17390;SDS011;8813;54.444;18.446;2023-02-28T04:50:41;28.43;;;18.23;;
17390;SDS011;8813;54.444;18.446;2023-02-28T04:53:08;31.13;;;18.23;;
17390;SDS011;8813;54.444;18.446;2023-02-28T04:55:35;31.63;;;17.37;;
17390;SDS011;8813;54.444;18.446;2023-02-28T04:58:06;29.43;;;17.13;;
17390;SDS011;8813;54.444;18.446;2023-02-28T05:00:33;29.77;;;17.07;;
17390;SDS011;8813;54.444;18.446;2023-02-28T05:03:00;29.00;;;15.17;;
17390;SDS011;8813;54.444;18.446;2023-02-28T05:05:27;27.87;;;15.70;;
17390;SDS011;8813;54.444;18.446;2023-02-28T05:07:54;29.00;;;16.73;;
17390;SDS011;8813;54.444;18.446;2023-02-28T05:10:21;30.83;;;16.87;;
17390;SDS011;8813;54.444;18.446;2023-02-28T05:12:48;25.20;;;15.53;;
17390;SDS011;8813;54.444;18.446;2023-02-28T05:15:17;28.03;;;15.90;;
17390;SDS011;8813;54.444;18.446;2023-02-28T05:17:44;27.27;;;15.37;;
17390;SDS011;8813;54.444;18.446;2023-02-28T05:20:11;35.17;;;18.27;;
17390;SDS011;8813;54.444;18.446;2023-02-28T05:22:39;48.43;;;23.40;;
17390;SDS011;8813;54.444;18.446;2023-02-28T05:25:08;61.83;;;27.23;;
17390;SDS011;8813;54.444;18.446;2023-02-28T05:27:36;45.20;;;22.63;;
17390;SDS011;8813;54.444;18.446;2023-02-28T05:30:03;35.13;;;18.43;;
17390;SDS011;8813;54.444;18.446;2023-02-28T05:32:32;28.83;;;14.57;;
17390;SDS011;8813;54.444;18.446;2023-02-28T05:34:59;25.30;;;13.47;;
17390;SDS011;8813;54.444;18.446;2023-02-28T05:37:26;37.07;;;18.37;;
17390;SDS011;8813;54.444;18.446;2023-02-28T05:39:53;36.17;;;17.67;;
17390;SDS011;8813;54.444;18.446;2023-02-28T05:42:24;31.70;;;17.00;;
17390;SDS011;8813;54.444;18.446;2023-02-28T05:44:51;26.27;;;16.33;;
17390;SDS011;8813;54.444;18.446;2023-02-28T05:47:18;22.97;;;13.80;;
17390;SDS011;8813;54.444;18.446;2023-02-28T05:49:46;25.83;;;15.07;;
17390;SDS011;8813;54.444;18.446;2023-02-28T05:52:13;42.63;;;21.93;;
17390;SDS011;8813;54.444;18.446;2023-02-28T05:54:40;38.57;;;20.57;;
17390;SDS011;8813;54.444;18.446;2023-02-28T05:57:07;36.23;;;19.23;;
17390;SDS011;8813;54.444;18.446;2023-02-28T05:59:34;32.83;;;20.13;;
17390;SDS011;8813;54.444;18.446;2023-02-28T06:02:04;32.10;;;18.00;;
17390;SDS011;8813;54.444;18.446;2023-02-28T06:04:31;28.00;;;16.30;;
17390;SDS011;8813;54.444;18.446;2023-02-28T06:07:00;27.17;;;16.63;;
17390;SDS011;8813;54.444;18.446;2023-02-28T06:09:27;36.83;;;19.07;;
17390;SDS011;8813;54.444;18.446;2023-02-28T06:11:54;37.13;;;19.80;;
17390;SDS011;8813;54.444;18.446;2023-02-28T06:14:21;44.33;;;22.37;;
17390;SDS011;8813;54.444;18.446;2023-02-28T06:16:48;43.33;;;22.70;;
17390;SDS011;8813;54.444;18.446;2023-02-28T06:19:15;41.00;;;23.20;;
17390;SDS011;8813;54.444;18.446;2023-02-28T06:21:42;44.73;;;22.77;;
17390;SDS011;8813;54.444;18.446;2023-02-28T06:24:11;44.57;;;22.73;;
17390;SDS011;8813;54.444;18.446;2023-02-28T06:26:38;41.43;;;21.33;;
17390;SDS011;8813;54.444;18.446;2023-02-28T06:29:04;43.07;;;21.43;;
17390;SDS011;8813;54.444;18.446;2023-02-28T06:31:32;42.53;;;22.07;;
17390;SDS011;8813;54.444;18.446;2023-02-28T06:33:59;41.40;;;22.20;;
17390;SDS011;8813;54.444;18.446;2023-02-28T06:36:28;42.57;;;22.33;;
17390;SDS011;8813;54.444;18.446;2023-02-28T06:38:55;41.30;;;22.80;;
17390;SDS011;8813;54.444;18.446;2023-02-28T06:41:24;44.50;;;23.10;;
17390;SDS011;8813;54.444;18.446;2023-02-28T06:43:51;40.63;;;21.07;;
17390;SDS011;8813;54.444;18.446;2023-02-28T06:46:19;42.50;;;22.93;;
17390;SDS011;8813;54.444;18.446;2023-02-28T06:48:46;40.67;;;23.90;;
17390;SDS011;8813;54.444;18.446;2023-02-28T06:51:14;40.50;;;23.07;;
17390;SDS011;8813;54.444;18.446;2023-02-28T06:53:42;51.10;;;25.87;;
17390;SDS011;8813;54.444;18.446;2023-02-28T06:56:10;46.07;;;25.13;;
17390;SDS011;8813;54.444;18.446;2023-02-28T06:58:41;46.30;;;24.50;;
17390;SDS011;8813;54.444;18.446;2023-02-28T07:01:09;47.20;;;25.63;;
17390;SDS011;8813;54.444;18.446;2023-02-28T07:03:36;66.20;;;33.43;;
17390;SDS011;8813;54.444;18.446;2023-02-28T07:06:04;80.37;;;39.80;;
17390;SDS011;8813;54.444;18.446;2023-02-28T07:08:31;77.50;;;36.37;;
17390;SDS011;8813;54.444;18.446;2023-02-28T07:10:59;80.13;;;36.27;;
17390;SDS011;8813;54.444;18.446;2023-02-28T07:13:26;74.13;;;33.77;;
17390;SDS011;8813;54.444;18.446;2023-02-28T07:15:54;61.97;;;31.67;;
17390;SDS011;8813;54.444;18.446;2023-02-28T07:18:22;53.50;;;28.50;;
17390;SDS011;8813;54.444;18.446;2023-02-28T07:20:49;56.00;;;28.17;;
17390;SDS011;8813;54.444;18.446;2023-02-28T07:23:16;47.27;;;26.83;;
17390;SDS011;8813;54.444;18.446;2023-02-28T07:25:43;43.50;;;24.10;;
17390;SDS011;8813;54.444;18.446;2023-02-28T07:28:10;47.80;;;23.80;;
17390;SDS011;8813;54.444;18.446;2023-02-28T07:30:37;42.47;;;22.70;;
17390;SDS011;8813;54.444;18.446;2023-02-28T07:33:06;44.23;;;21.97;;
17390;SDS011;8813;54.444;18.446;2023-02-28T07:35:33;47.23;;;24.00;;
17390;SDS011;8813;54.444;18.446;2023-02-28T07:38:00;55.93;;;28.83;;
17390;SDS011;8813;54.444;18.446;2023-02-28T07:40:28;75.77;;;33.30;;
17390;SDS011;8813;54.444;18.446;2023-02-28T07:42:55;78.13;;;35.67;;
17390;SDS011;8813;54.444;18.446;2023-02-28T07:45:21;69.73;;;32.70;;
17390;SDS011;8813;54.444;18.446;2023-02-28T07:47:48;83.30;;;34.27;;
17390;SDS011;8813;54.444;18.446;2023-02-28T07:50:17;95.77;;;37.90;;
17390;SDS011;8813;54.444;18.446;2023-02-28T07:52:44;88.53;;;38.00;;
17390;SDS011;8813;54.444;18.446;2023-02-28T07:55:10;5.07;;;4.57;;
17390;SDS011;8813;54.444;18.446;2023-02-28T07:57:39;22.47;;;11.63;;
17390;SDS011;8813;54.444;18.446;2023-02-28T08:00:06;6.40;;;6.00;;
17390;SDS011;8813;54.444;18.446;2023-02-28T08:02:35;7.87;;;7.17;;
17390;SDS011;8813;54.444;18.446;2023-02-28T08:05:02;2.40;;;2.30;;
17390;SDS011;8813;54.444;18.446;2023-02-28T08:07:31;6.23;;;4.70;;
17390;SDS011;8813;54.444;18.446;2023-02-28T08:10:00;4.10;;;2.00;;
17390;SDS011;8813;54.444;18.446;2023-02-28T08:12:26;10.60;;;4.73;;
17390;SDS011;8813;54.444;18.446;2023-02-28T08:14:53;4.65;;;2.83;;
17390;SDS011;8813;54.444;18.446;2023-02-28T08:17:20;4.93;;;4.63;;
17390;SDS011;8813;54.444;18.446;2023-02-28T08:19:48;1.45;;;1.45;;
17390;SDS011;8813;54.444;18.446;2023-02-28T08:22:15;1.45;;;1.45;;
17390;SDS011;8813;54.444;18.446;2023-02-28T08:24:43;4.43;;;4.03;;
17390;SDS011;8813;54.444;18.446;2023-02-28T08:27:10;3.92;;;3.83;;
17390;SDS011;8813;54.444;18.446;2023-02-28T08:29:38;1.55;;;1.45;;
17390;SDS011;8813;54.444;18.446;2023-02-28T08:32:05;5.47;;;3.60;;
17390;SDS011;8813;54.444;18.446;2023-02-28T08:34:41;10.50;;;4.35;;
17390;SDS011;8813;54.444;18.446;2023-02-28T08:37:11;3.45;;;3.15;;
17390;SDS011;8813;54.444;18.446;2023-02-28T08:39:38;3.35;;;3.15;;
17390;SDS011;8813;54.444;18.446;2023-02-28T08:42:06;2.17;;;2.08;;
17390;SDS011;8813;54.444;18.446;2023-02-28T08:44:35;8.30;;;5.95;;
17390;SDS011;8813;54.444;18.446;2023-02-28T08:47:02;1.95;;;1.95;;
17390;SDS011;8813;54.444;18.446;2023-02-28T08:49:29;4.50;;;4.13;;
17390;SDS011;8813;54.444;18.446;2023-02-28T08:51:56;3.60;;;2.47;;
17390;SDS011;8813;54.444;18.446;2023-02-28T08:54:23;2.72;;;2.63;;
17390;SDS011;8813;54.444;18.446;2023-02-28T08:56:50;20.58;;;4.20;;
17390;SDS011;8813;54.444;18.446;2023-02-28T08:59:18;17.98;;;3.28;;
17390;SDS011;8813;54.444;18.446;2023-02-28T09:01:45;12.95;;;7.68;;
17390;SDS011;8813;54.444;18.446;2023-02-28T09:04:12;14.40;;;10.23;;
17390;SDS011;8813;54.444;18.446;2023-02-28T09:06:39;9.43;;;7.75;;
17390;SDS011;8813;54.444;18.446;2023-02-28T09:09:06;10.90;;;8.80;;
17390;SDS011;8813;54.444;18.446;2023-02-28T09:11:34;8.55;;;7.68;;
17390;SDS011;8813;54.444;18.446;2023-02-28T09:14:01;12.50;;;10.07;;
17390;SDS011;8813;54.444;18.446;2023-02-28T09:16:31;12.55;;;11.25;;
17390;SDS011;8813;54.444;18.446;2023-02-28T09:18:58;76.28;;;47.55;;
17390;SDS011;8813;54.444;18.446;2023-02-28T09:21:25;52.38;;;41.10;;
17390;SDS011;8813;54.444;18.446;2023-02-28T09:23:52;1.58;;;1.55;;
17390;SDS011;8813;54.444;18.446;2023-02-28T09:26:20;4.13;;;3.80;;
17390;SDS011;8813;54.444;18.446;2023-02-28T09:28:48;3.78;;;2.47;;
17390;SDS011;8813;54.444;18.446;2023-02-28T09:31:17;9.85;;;3.70;;
17390;SDS011;8813;54.444;18.446;2023-02-28T09:33:47;5.55;;;2.65;;
17390;SDS011;8813;54.444;18.446;2023-02-28T09:36:14;1.52;;;1.42;;
17390;SDS011;8813;54.444;18.446;2023-02-28T09:38:41;4.40;;;4.00;;
17390;SDS011;8813;54.444;18.446;2023-02-28T09:41:11;2.95;;;2.58;;
17390;SDS011;8813;54.444;18.446;2023-02-28T09:43:41;1.63;;;1.58;;
17390;SDS011;8813;54.444;18.446;2023-02-28T09:46:25;2.65;;;2.47;;
17390;SDS011;8813;54.444;18.446;2023-02-28T09:48:56;1.98;;;1.85;;
17390;SDS011;8813;54.444;18.446;2023-02-28T09:51:27;1.40;;;1.40;;
17390;SDS011;8813;54.444;18.446;2023-02-28T09:54:09;1.17;;;1.17;;
17390;SDS011;8813;54.444;18.446;2023-02-28T09:56:44;1.23;;;1.10;;
17390;SDS011;8813;54.444;18.446;2023-02-28T09:59:13;2.60;;;2.45;;
17390;SDS011;8813;54.444;18.446;2023-02-28T10:01:47;1.45;;;1.45;;
17390;SDS011;8813;54.444;18.446;2023-02-28T10:04:25;1.00;;;1.00;;
17390;SDS011;8813;54.444;18.446;2023-02-28T10:07:01;1.00;;;1.00;;
17390;SDS011;8813;54.444;18.446;2023-02-28T10:09:31;1.17;;;1.17;;
17390;SDS011;8813;54.444;18.446;2023-02-28T10:12:00;1.70;;;1.65;;
17390;SDS011;8813;54.444;18.446;2023-02-28T10:14:28;1.17;;;1.17;;
17390;SDS011;8813;54.444;18.446;2023-02-28T10:16:56;2.80;;;2.60;;
17390;SDS011;8813;54.444;18.446;2023-02-28T10:19:28;2.63;;;2.53;;
17390;SDS011;8813;54.444;18.446;2023-02-28T10:22:00;1.92;;;1.92;;
17390;SDS011;8813;54.444;18.446;2023-02-28T10:24:29;2.95;;;2.75;;
17390;SDS011;8813;54.444;18.446;2023-02-28T10:26:59;1.95;;;1.85;;
17390;SDS011;8813;54.444;18.446;2023-02-28T10:29:27;2.90;;;2.35;;
17390;SDS011;8813;54.444;18.446;2023-02-28T10:31:55;1.38;;;1.20;;
17390;SDS011;8813;54.444;18.446;2023-02-28T10:34:22;2.30;;;2.10;;
17390;SDS011;8813;54.444;18.446;2023-02-28T10:36:50;1.20;;;1.20;;
17390;SDS011;8813;54.444;18.446;2023-02-28T10:39:34;1.27;;;1.27;;
17390;SDS011;8813;54.444;18.446;2023-02-28T10:42:05;2.10;;;1.90;;
17390;SDS011;8813;54.444;18.446;2023-02-28T10:44:32;10.48;;;2.38;;
17390;SDS011;8813;54.444;18.446;2023-02-28T10:46:58;1.65;;;1.55;;
17390;SDS011;8813;54.444;18.446;2023-02-28T10:49:26;2.55;;;1.98;;
17390;SDS011;8813;54.444;18.446;2023-02-28T10:51:56;1.63;;;1.52;;
17390;SDS011;8813;54.444;18.446;2023-02-28T10:54:24;1.80;;;1.70;;
17390;SDS011;8813;54.444;18.446;2023-02-28T10:57:05;3.50;;;3.15;;
17390;SDS011;8813;54.444;18.446;2023-02-28T10:59:33;3.45;;;3.20;;
17390;SDS011;8813;54.444;18.446;2023-02-28T11:02:00;10.13;;;8.32;;
17390;SDS011;8813;54.444;18.446;2023-02-28T11:04:35;11.65;;;7.55;;
17390;SDS011;8813;54.444;18.446;2023-02-28T11:07:06;7.15;;;4.43;;
17390;SDS011;8813;54.444;18.446;2023-02-28T11:09:47;5.28;;;4.32;;
17390;SDS011;8813;54.444;18.446;2023-02-28T11:12:22;2.47;;;2.38;;
17390;SDS011;8813;54.444;18.446;2023-02-28T11:14:51;1.98;;;1.88;;
17390;SDS011;8813;54.444;18.446;2023-02-28T11:17:20;2.00;;;1.90;;
17390;SDS011;8813;54.444;18.446;2023-02-28T11:19:49;1.15;;;1.15;;
17390;SDS011;8813;54.444;18.446;2023-02-28T11:22:21;1.20;;;1.20;;
17390;SDS011;8813;54.444;18.446;2023-02-28T11:24:50;15.63;;;8.32;;
17390;SDS011;8813;54.444;18.446;2023-02-28T11:27:25;1.10;;;1.10;;
17390;SDS011;8813;54.444;18.446;2023-02-28T11:29:53;1.80;;;1.70;;
17390;SDS011;8813;54.444;18.446;2023-02-28T11:32:21;2.42;;;1.70;;
17390;SDS011;8813;54.444;18.446;2023-02-28T11:34:59;1.10;;;1.10;;
17390;SDS011;8813;54.444;18.446;2023-02-28T11:37:28;3.90;;;2.25;;
17390;SDS011;8813;54.444;18.446;2023-02-28T11:39:57;1.55;;;1.45;;
17390;SDS011;8813;54.444;18.446;2023-02-28T11:45:15;4.57;;;4.07;;
17390;SDS011;8813;54.444;18.446;2023-02-28T11:47:48;4.57;;;4.18;;
17390;SDS011;8813;54.444;18.446;2023-02-28T11:50:24;1.50;;;1.50;;
17390;SDS011;8813;54.444;18.446;2023-02-28T11:53:02;2.80;;;1.23;;
17390;SDS011;8813;54.444;18.446;2023-02-28T11:55:32;0.90;;;0.90;;
17390;SDS011;8813;54.444;18.446;2023-02-28T11:58:10;1.73;;;1.73;;
17390;SDS011;8813;54.444;18.446;2023-02-28T12:01:11;2.25;;;2.15;;
17390;SDS011;8813;54.444;18.446;2023-02-28T12:03:45;1.33;;;1.33;;
17390;SDS011;8813;54.444;18.446;2023-02-28T12:06:22;6.88;;;2.78;;
17390;SDS011;8813;54.444;18.446;2023-02-28T12:09:00;1.00;;;1.00;;
17390;SDS011;8813;54.444;18.446;2023-02-28T12:11:36;1.60;;;1.60;;
17390;SDS011;8813;54.444;18.446;2023-02-28T12:14:24;1.85;;;1.85;;
17390;SDS011;8813;54.444;18.446;2023-02-28T12:17:08;6.63;;;5.93;;
17390;SDS011;8813;54.444;18.446;2023-02-28T12:19:43;10.70;;;9.63;;
17390;SDS011;8813;54.444;18.446;2023-02-28T12:22:17;2.58;;;2.47;;
17390;SDS011;8813;54.444;18.446;2023-02-28T12:25:00;3.00;;;2.88;;
17390;SDS011;8813;54.444;18.446;2023-02-28T12:27:37;1.60;;;1.60;;
17390;SDS011;8813;54.444;18.446;2023-02-28T12:30:08;3.40;;;2.72;;
17390;SDS011;8813;54.444;18.446;2023-02-28T12:32:41;4.63;;;4.28;;
17390;SDS011;8813;54.444;18.446;2023-02-28T12:35:11;5.40;;;3.90;;
17390;SDS011;8813;54.444;18.446;2023-02-28T12:37:40;2.75;;;2.50;;
17390;SDS011;8813;54.444;18.446;2023-02-28T12:40:13;2.17;;;2.08;;
17390;SDS011;8813;54.444;18.446;2023-02-28T12:42:44;1.65;;;1.65;;
17390;SDS011;8813;54.444;18.446;2023-02-28T12:45:13;2.45;;;2.35;;
17390;SDS011;8813;54.444;18.446;2023-02-28T12:47:44;1.15;;;1.15;;
17390;SDS011;8813;54.444;18.446;2023-02-28T12:50:12;2.72;;;2.17;;
17390;SDS011;8813;54.444;18.446;2023-02-28T12:52:41;6.07;;;5.55;;
17390;SDS011;8813;54.444;18.446;2023-02-28T12:55:17;20.40;;;13.82;;
17390;SDS011;8813;54.444;18.446;2023-02-28T12:57:50;9.27;;;8.48;;
17390;SDS011;8813;54.444;18.446;2023-02-28T13:00:21;4.32;;;3.90;;
17390;SDS011;8813;54.444;18.446;2023-02-28T13:03:07;4.50;;;4.20;;
17390;SDS011;8813;54.444;18.446;2023-02-28T13:05:56;5.18;;;4.03;;
17390;SDS011;8813;54.444;18.446;2023-02-28T13:08:36;5.07;;;4.63;;
17390;SDS011;8813;54.444;18.446;2023-02-28T13:11:33;4.53;;;4.13;;
17390;SDS011;8813;54.444;18.446;2023-02-28T13:14:06;4.07;;;3.78;;
17390;SDS011;8813;54.444;18.446;2023-02-28T13:19:36;4.82;;;4.47;;
17390;SDS011;8813;54.444;18.446;2023-02-28T13:22:04;6.60;;;4.93;;
17390;SDS011;8813;54.444;18.446;2023-02-28T13:27:34;5.32;;;4.82;;
17390;SDS011;8813;54.444;18.446;2023-02-28T13:33:20;7.78;;;7.07;;
17390;SDS011;8813;54.444;18.446;2023-02-28T13:35:50;6.50;;;6.00;;
17390;SDS011;8813;54.444;18.446;2023-02-28T13:38:34;7.30;;;4.88;;
17390;SDS011;8813;54.444;18.446;2023-02-28T13:44:22;4.82;;;4.13;;
17390;SDS011;8813;54.444;18.446;2023-02-28T13:49:45;0.70;;;0.70;;
17390;SDS011;8813;54.444;18.446;2023-02-28T13:52:14;1.15;;;1.15;;
17390;SDS011;8813;54.444;18.446;2023-02-28T13:57:53;1.42;;;1.42;;
17390;SDS011;8813;54.444;18.446;2023-02-28T14:00:40;1.77;;;1.73;;
17390;SDS011;8813;54.444;18.446;2023-02-28T14:03:18;2.38;;;1.42;;
17390;SDS011;8813;54.444;18.446;2023-02-28T14:06:09;2.08;;;1.92;;
17390;SDS011;8813;54.444;18.446;2023-02-28T14:08:44;1.80;;;1.70;;
17390;SDS011;8813;54.444;18.446;2023-02-28T14:11:23;1.95;;;1.00;;
17390;SDS011;8813;54.444;18.446;2023-02-28T14:13:52;0.73;;;0.73;;
17390;SDS011;8813;54.444;18.446;2023-02-28T14:16:21;1.55;;;1.55;;
17390;SDS011;8813;54.444;18.446;2023-02-28T14:18:54;0.90;;;0.90;;
17390;SDS011;8813;54.444;18.446;2023-02-28T14:21:23;1.75;;;1.50;;
17390;SDS011;8813;54.444;18.446;2023-02-28T14:27:14;4.50;;;2.65;;
17390;SDS011;8813;54.444;18.446;2023-02-28T14:32:50;1.83;;;1.83;;
17390;SDS011;8813;54.444;18.446;2023-02-28T14:35:26;1.17;;;1.17;;
17390;SDS011;8813;54.444;18.446;2023-02-28T14:38:04;1.20;;;1.20;;
17390;SDS011;8813;54.444;18.446;2023-02-28T14:40:32;1.77;;;1.63;;
17390;SDS011;8813;54.444;18.446;2023-02-28T14:43:01;1.63;;;1.53;;
17390;SDS011;8813;54.444;18.446;2023-02-28T14:45:29;2.37;;;2.17;;
17390;SDS011;8813;54.444;18.446;2023-02-28T14:47:59;1.83;;;1.73;;
17390;SDS011;8813;54.444;18.446;2023-02-28T14:50:28;1.40;;;1.40;;
17390;SDS011;8813;54.444;18.446;2023-02-28T14:52:57;1.00;;;1.00;;
17390;SDS011;8813;54.444;18.446;2023-02-28T14:55:25;1.00;;;1.00;;
17390;SDS011;8813;54.444;18.446;2023-02-28T14:57:53;8.13;;;5.00;;
17390;SDS011;8813;54.444;18.446;2023-02-28T15:00:22;2.07;;;1.97;;
17390;SDS011;8813;54.444;18.446;2023-02-28T15:02:50;3.47;;;3.20;;
17390;SDS011;8813;54.444;18.446;2023-02-28T15:05:26;1.37;;;1.37;;
17390;SDS011;8813;54.444;18.446;2023-02-28T15:08:01;1.07;;;1.07;;
17390;SDS011;8813;54.444;18.446;2023-02-28T15:10:32;2.60;;;1.60;;
17390;SDS011;8813;54.444;18.446;2023-02-28T15:13:00;0.87;;;0.87;;
17390;SDS011;8813;54.444;18.446;2023-02-28T15:15:32;2.90;;;2.20;;
17390;SDS011;8813;54.444;18.446;2023-02-28T15:18:06;1.07;;;1.07;;
17390;SDS011;8813;54.444;18.446;2023-02-28T15:20:36;1.67;;;1.67;;
17390;SDS011;8813;54.444;18.446;2023-02-28T15:23:05;7.90;;;2.20;;
17390;SDS011;8813;54.444;18.446;2023-02-28T15:25:32;3.73;;;3.40;;
17390;SDS011;8813;54.444;18.446;2023-02-28T15:27:59;1.47;;;1.43;;
17390;SDS011;8813;54.444;18.446;2023-02-28T15:30:26;4.63;;;4.27;;
17390;SDS011;8813;54.444;18.446;2023-02-28T15:33:05;1.60;;;1.50;;